sensor_id;sensor_type;location;lat;lon;timestamp;pressure;altitude;pressure_sealevel;temperature;humidity
46768;BME280;69007;48.978;18.066;2023-07-31T00:00:56;97346.00;;;17.36;100.00
46768;BME280;69007;48.978;18.066;2023-07-31T00:03:21;97350.97;;;17.34;100.00
46768;BME280;69007;48.978;18.066;2023-07-31T00:05:46;97341.59;;;17.35;100.00
46768;BME280;69007;48.978;18.066;2023-07-31T00:08:12;97353.38;;;17.26;100.00
46768;BME280;69007;48.978;18.066;2023-07-31T00:10:37;97354.63;;;17.20;100.00
46768;BME280;69007;48.978;18.066;2023-07-31T00:13:02;97349.72;;;17.08;100.00
46768;BME280;69007;48.978;18.066;2023-07-31T00:15:28;97361.19;;;17.10;100.00
46768;BME280;69007;48.978;18.066;2023-07-31T00:17:54;97345.47;;;17.02;100.00
46768;BME280;69007;48.978;18.066;2023-07-31T00:20:20;97353.22;;;17.00;100.00
46768;BME280;69007;48.978;18.066;2023-07-31T00:22:45;97361.81;;;17.07;100.00
46768;BME280;69007;48.978;18.066;2023-07-31T00:25:11;97342.22;;;17.00;100.00
46768;BME280;69007;48.978;18.066;2023-07-31T00:27:36;97362.47;;;17.04;100.00
46768;BME280;69007;48.978;18.066;2023-07-31T00:30:02;97364.88;;;17.06;100.00
46768;BME280;69007;48.978;18.066;2023-07-31T00:32:28;97341.59;;;17.03;100.00
46768;BME280;69007;48.978;18.066;2023-07-31T00:34:53;97335.63;;;17.01;100.00
46768;BME280;69007;48.978;18.066;2023-07-31T00:37:19;97358.94;;;17.12;100.00
46768;BME280;69007;48.978;18.066;2023-07-31T00:39:44;97339.97;;;17.02;100.00
46768;BME280;69007;48.978;18.066;2023-07-31T00:42:09;97356.84;;;17.09;100.00
46768;BME280;69007;48.978;18.066;2023-07-31T00:44:35;97345.34;;;17.07;100.00
46768;BME280;69007;48.978;18.066;2023-07-31T00:47:00;97350.97;;;17.02;100.00
46768;BME280;69007;48.978;18.066;2023-07-31T00:49:26;97364.72;;;17.02;100.00
46768;BME280;69007;48.978;18.066;2023-07-31T00:51:53;97334.56;;;16.88;100.00
46768;BME280;69007;48.978;18.066;2023-07-31T00:54:19;97345.59;;;16.97;100.00
46768;BME280;69007;48.978;18.066;2023-07-31T00:56:47;97330.50;;;16.86;100.00
46768;BME280;69007;48.978;18.066;2023-07-31T00:59:14;97354.66;;;16.98;100.00
46768;BME280;69007;48.978;18.066;2023-07-31T01:01:40;97342.50;;;16.90;100.00
46768;BME280;69007;48.978;18.066;2023-07-31T01:04:05;97355.47;;;16.98;100.00
46768;BME280;69007;48.978;18.066;2023-07-31T01:12:02;97345.56;;;16.88;100.00
46768;BME280;69007;48.978;18.066;2023-07-31T01:14:28;97343.13;;;16.87;100.00
46768;BME280;69007;48.978;18.066;2023-07-31T01:16:54;97343.72;;;16.84;100.00
46768;BME280;69007;48.978;18.066;2023-07-31T01:19:22;97340.44;;;16.73;100.00
46768;BME280;69007;48.978;18.066;2023-07-31T01:25:09;97342.78;;;16.66;100.00
46768;BME280;69007;48.978;18.066;2023-07-31T01:27:59;97340.84;;;16.66;100.00
46768;BME280;69007;48.978;18.066;2023-07-31T01:30:32;97331.31;;;16.64;100.00
46768;BME280;69007;48.978;18.066;2023-07-31T01:33:01;97324.59;;;16.56;100.00
46768;BME280;69007;48.978;18.066;2023-07-31T01:35:33;97345.28;;;16.53;100.00
46768;BME280;69007;48.978;18.066;2023-07-31T01:37:58;97335.53;;;16.47;100.00
46768;BME280;69007;48.978;18.066;2023-07-31T01:40:24;97348.34;;;16.52;100.00
46768;BME280;69007;48.978;18.066;2023-07-31T01:42:49;97354.31;;;16.54;100.00
46768;BME280;69007;48.978;18.066;2023-07-31T01:45:14;97337.09;;;16.39;100.00
46768;BME280;69007;48.978;18.066;2023-07-31T01:47:40;97350.56;;;16.50;100.00
46768;BME280;69007;48.978;18.066;2023-07-31T01:50:05;97346.88;;;16.54;100.00
46768;BME280;69007;48.978;18.066;2023-07-31T01:52:31;97339.91;;;16.48;100.00
46768;BME280;69007;48.978;18.066;2023-07-31T01:54:56;97342.53;;;16.53;100.00
46768;BME280;69007;48.978;18.066;2023-07-31T01:57:21;97356.28;;;16.53;100.00
46768;BME280;69007;48.978;18.066;2023-07-31T01:59:47;97344.28;;;16.49;100.00
46768;BME280;69007;48.978;18.066;2023-07-31T02:02:13;97354.19;;;16.59;100.00
46768;BME280;69007;48.978;18.066;2023-07-31T02:04:38;97358.72;;;16.55;100.00
46768;BME280;69007;48.978;18.066;2023-07-31T02:07:04;97379.06;;;16.54;100.00
46768;BME280;69007;48.978;18.066;2023-07-31T02:09:30;97357.00;;;16.45;100.00
46768;BME280;69007;48.978;18.066;2023-07-31T02:11:55;97371.72;;;16.49;100.00
46768;BME280;69007;48.978;18.066;2023-07-31T02:14:20;97348.47;;;16.47;100.00
46768;BME280;69007;48.978;18.066;2023-07-31T02:16:46;97374.00;;;16.47;100.00
46768;BME280;69007;48.978;18.066;2023-07-31T02:19:11;97362.31;;;16.42;100.00
46768;BME280;69007;48.978;18.066;2023-07-31T02:21:37;97376.91;;;16.51;100.00
46768;BME280;69007;48.978;18.066;2023-07-31T02:24:02;97364.41;;;16.45;100.00
46768;BME280;69007;48.978;18.066;2023-07-31T02:26:27;97375.22;;;16.41;100.00
46768;BME280;69007;48.978;18.066;2023-07-31T02:28:53;97369.16;;;16.30;100.00
46768;BME280;69007;48.978;18.066;2023-07-31T02:31:18;97383.19;;;16.29;100.00
46768;BME280;69007;48.978;18.066;2023-07-31T02:33:43;97365.63;;;16.16;100.00
46768;BME280;69007;48.978;18.066;2023-07-31T02:36:09;97394.59;;;16.22;100.00
46768;BME280;69007;48.978;18.066;2023-07-31T02:38:34;97382.91;;;16.16;100.00
46768;BME280;69007;48.978;18.066;2023-07-31T02:40:59;97376.91;;;16.14;100.00
46768;BME280;69007;48.978;18.066;2023-07-31T02:43:25;97393.28;;;16.19;100.00
46768;BME280;69007;48.978;18.066;2023-07-31T02:45:53;97378.97;;;16.09;100.00
46768;BME280;69007;48.978;18.066;2023-07-31T02:48:19;97404.56;;;16.18;100.00
46768;BME280;69007;48.978;18.066;2023-07-31T02:50:45;97384.53;;;16.17;100.00
46768;BME280;69007;48.978;18.066;2023-07-31T02:53:10;97399.56;;;16.20;100.00
46768;BME280;69007;48.978;18.066;2023-07-31T02:55:36;97406.50;;;16.17;100.00
46768;BME280;69007;48.978;18.066;2023-07-31T02:58:01;97397.75;;;16.15;100.00
46768;BME280;69007;48.978;18.066;2023-07-31T03:00:27;97393.19;;;16.11;100.00
46768;BME280;69007;48.978;18.066;2023-07-31T03:02:53;97405.78;;;16.12;100.00
46768;BME280;69007;48.978;18.066;2023-07-31T03:05:18;97395.22;;;16.05;100.00
46768;BME280;69007;48.978;18.066;2023-07-31T03:07:43;97410.06;;;16.04;100.00
46768;BME280;69007;48.978;18.066;2023-07-31T03:10:09;97412.09;;;15.98;100.00
46768;BME280;69007;48.978;18.066;2023-07-31T03:12:34;97422.56;;;15.96;100.00
46768;BME280;69007;48.978;18.066;2023-07-31T03:14:59;97395.84;;;15.88;100.00
46768;BME280;69007;48.978;18.066;2023-07-31T03:17:25;97407.31;;;15.90;100.00
46768;BME280;69007;48.978;18.066;2023-07-31T03:19:50;97424.09;;;15.89;100.00
46768;BME280;69007;48.978;18.066;2023-07-31T03:22:16;97395.47;;;15.81;100.00
46768;BME280;69007;48.978;18.066;2023-07-31T03:24:41;97407.72;;;15.83;100.00
46768;BME280;69007;48.978;18.066;2023-07-31T03:27:06;97421.44;;;15.83;100.00
46768;BME280;69007;48.978;18.066;2023-07-31T03:29:32;97414.56;;;15.86;100.00
46768;BME280;69007;48.978;18.066;2023-07-31T03:31:57;97408.97;;;15.91;100.00
46768;BME280;69007;48.978;18.066;2023-07-31T03:34:22;97408.66;;;15.93;100.00
46768;BME280;69007;48.978;18.066;2023-07-31T03:36:48;97390.56;;;15.92;100.00
46768;BME280;69007;48.978;18.066;2023-07-31T03:39:13;97382.03;;;15.93;100.00
46768;BME280;69007;48.978;18.066;2023-07-31T03:41:39;97404.97;;;16.25;100.00
46768;BME280;69007;48.978;18.066;2023-07-31T03:44:04;97385.75;;;16.25;100.00
46768;BME280;69007;48.978;18.066;2023-07-31T03:46:29;97399.97;;;16.27;100.00
46768;BME280;69007;48.978;18.066;2023-07-31T03:48:55;97416.97;;;16.15;100.00
46768;BME280;69007;48.978;18.066;2023-07-31T03:51:20;97420.22;;;16.17;100.00
46768;BME280;69007;48.978;18.066;2023-07-31T03:53:45;97425.91;;;16.21;100.00
46768;BME280;69007;48.978;18.066;2023-07-31T03:56:11;97402.41;;;16.15;100.00
46768;BME280;69007;48.978;18.066;2023-07-31T03:58:36;97416.75;;;16.26;100.00
46768;BME280;69007;48.978;18.066;2023-07-31T04:01:03;97407.28;;;16.32;100.00
46768;BME280;69007;48.978;18.066;2023-07-31T04:03:29;97415.09;;;16.38;100.00
46768;BME280;69007;48.978;18.066;2023-07-31T04:05:54;97424.06;;;16.30;100.00
46768;BME280;69007;48.978;18.066;2023-07-31T04:08:21;97406.66;;;16.35;100.00
46768;BME280;69007;48.978;18.066;2023-07-31T04:10:46;97412.78;;;16.32;100.00
46768;BME280;69007;48.978;18.066;2023-07-31T04:13:12;97418.06;;;16.28;100.00
46768;BME280;69007;48.978;18.066;2023-07-31T04:15:38;97416.72;;;16.39;100.00
46768;BME280;69007;48.978;18.066;2023-07-31T04:18:04;97428.75;;;16.66;100.00
46768;BME280;69007;48.978;18.066;2023-07-31T04:20:30;97423.22;;;16.80;100.00
46768;BME280;69007;48.978;18.066;2023-07-31T04:22:55;97421.38;;;16.89;100.00
46768;BME280;69007;48.978;18.066;2023-07-31T04:25:21;97419.19;;;17.00;100.00
46768;BME280;69007;48.978;18.066;2023-07-31T04:27:46;97425.75;;;17.13;100.00
46768;BME280;69007;48.978;18.066;2023-07-31T04:30:11;97416.75;;;17.21;100.00
46768;BME280;69007;48.978;18.066;2023-07-31T04:32:37;97417.66;;;17.39;100.00
46768;BME280;69007;48.978;18.066;2023-07-31T04:35:03;97433.34;;;17.39;100.00
46768;BME280;69007;48.978;18.066;2023-07-31T04:37:28;97424.91;;;17.35;100.00
46768;BME280;69007;48.978;18.066;2023-07-31T04:39:53;97395.25;;;17.23;100.00
46768;BME280;69007;48.978;18.066;2023-07-31T04:42:19;97422.84;;;17.41;100.00
46768;BME280;69007;48.978;18.066;2023-07-31T04:44:44;97415.59;;;17.45;100.00
46768;BME280;69007;48.978;18.066;2023-07-31T04:47:10;97429.66;;;17.43;100.00
46768;BME280;69007;48.978;18.066;2023-07-31T04:49:35;97427.59;;;17.49;100.00
46768;BME280;69007;48.978;18.066;2023-07-31T04:52:00;97434.25;;;17.57;100.00
46768;BME280;69007;48.978;18.066;2023-07-31T04:54:27;97416.66;;;17.66;100.00
46768;BME280;69007;48.978;18.066;2023-07-31T04:56:52;97432.72;;;17.73;100.00
46768;BME280;69007;48.978;18.066;2023-07-31T04:59:18;97414.75;;;17.76;100.00
46768;BME280;69007;48.978;18.066;2023-07-31T05:01:43;97430.25;;;17.94;100.00
46768;BME280;69007;48.978;18.066;2023-07-31T05:04:12;97419.31;;;18.20;100.00
46768;BME280;69007;48.978;18.066;2023-07-31T05:06:38;97417.56;;;18.51;100.00
46768;BME280;69007;48.978;18.066;2023-07-31T05:09:03;97420.97;;;18.74;100.00
46768;BME280;69007;48.978;18.066;2023-07-31T05:11:28;97420.69;;;18.93;100.00
46768;BME280;69007;48.978;18.066;2023-07-31T05:13:54;97411.59;;;19.01;100.00
46768;BME280;69007;48.978;18.066;2023-07-31T05:16:19;97412.53;;;19.23;100.00
46768;BME280;69007;48.978;18.066;2023-07-31T05:18:44;97416.66;;;19.64;100.00
46768;BME280;69007;48.978;18.066;2023-07-31T05:21:10;97427.72;;;20.02;100.00
46768;BME280;69007;48.978;18.066;2023-07-31T05:23:35;97416.22;;;20.30;100.00
46768;BME280;69007;48.978;18.066;2023-07-31T05:26:04;97419.09;;;21.06;100.00
46768;BME280;69007;48.978;18.066;2023-07-31T05:28:30;97417.81;;;22.07;100.00
46768;BME280;69007;48.978;18.066;2023-07-31T05:31:00;97407.47;;;23.10;98.96
46768;BME280;69007;48.978;18.066;2023-07-31T05:33:26;97419.00;;;24.00;91.82
46768;BME280;69007;48.978;18.066;2023-07-31T05:35:51;97421.66;;;24.60;87.50
46768;BME280;69007;48.978;18.066;2023-07-31T05:38:17;97412.31;;;25.08;81.70
46768;BME280;69007;48.978;18.066;2023-07-31T05:40:42;97418.94;;;25.62;78.24
46768;BME280;69007;48.978;18.066;2023-07-31T05:43:08;97413.34;;;26.04;74.99
46768;BME280;69007;48.978;18.066;2023-07-31T05:45:35;97446.22;;;26.18;74.06
46768;BME280;69007;48.978;18.066;2023-07-31T05:48:00;97444.31;;;25.99;75.52
46768;BME280;69007;48.978;18.066;2023-07-31T05:50:25;97431.09;;;25.73;74.62
46768;BME280;69007;48.978;18.066;2023-07-31T05:52:51;97429.38;;;25.45;72.77
46768;BME280;69007;48.978;18.066;2023-07-31T05:55:17;97439.72;;;25.45;72.13
46768;BME280;69007;48.978;18.066;2023-07-31T05:57:42;97437.63;;;25.38;74.29
46768;BME280;69007;48.978;18.066;2023-07-31T06:00:08;97441.09;;;25.54;71.46
46768;BME280;69007;48.978;18.066;2023-07-31T06:02:33;97445.88;;;25.77;67.59
46768;BME280;69007;48.978;18.066;2023-07-31T06:05:02;97454.41;;;26.07;66.29
46768;BME280;69007;48.978;18.066;2023-07-31T06:07:29;97458.81;;;26.32;64.61
46768;BME280;69007;48.978;18.066;2023-07-31T06:09:54;97467.16;;;27.42;61.05
46768;BME280;69007;48.978;18.066;2023-07-31T06:12:20;97469.75;;;27.62;59.04
46768;BME280;69007;48.978;18.066;2023-07-31T06:14:46;97460.88;;;27.49;59.42
46768;BME280;69007;48.978;18.066;2023-07-31T06:17:11;97463.31;;;27.54;58.37
46768;BME280;69007;48.978;18.066;2023-07-31T06:19:36;97450.63;;;27.64;58.40
46768;BME280;69007;48.978;18.066;2023-07-31T06:22:02;97451.50;;;27.03;59.45
46768;BME280;69007;48.978;18.066;2023-07-31T06:24:28;97446.41;;;26.82;59.75
46768;BME280;69007;48.978;18.066;2023-07-31T06:26:53;97456.06;;;26.35;62.57
46768;BME280;69007;48.978;18.066;2023-07-31T06:29:20;97449.38;;;26.17;65.30
46768;BME280;69007;48.978;18.066;2023-07-31T06:31:46;97448.97;;;25.72;64.99
46768;BME280;69007;48.978;18.066;2023-07-31T06:34:11;97435.06;;;25.29;66.82
46768;BME280;69007;48.978;18.066;2023-07-31T06:36:36;97454.72;;;25.20;68.16
46768;BME280;69007;48.978;18.066;2023-07-31T06:39:02;97439.88;;;25.13;68.37
46768;BME280;69007;48.978;18.066;2023-07-31T06:41:27;97458.25;;;25.17;68.52
46768;BME280;69007;48.978;18.066;2023-07-31T06:43:52;97451.22;;;25.24;69.57
46768;BME280;69007;48.978;18.066;2023-07-31T06:46:18;97455.47;;;25.37;68.56
46768;BME280;69007;48.978;18.066;2023-07-31T06:48:43;97467.09;;;25.04;69.60
46768;BME280;69007;48.978;18.066;2023-07-31T06:51:09;97445.53;;;24.81;69.87
46768;BME280;69007;48.978;18.066;2023-07-31T06:53:34;97442.63;;;24.74;70.55
46768;BME280;69007;48.978;18.066;2023-07-31T06:56:00;97441.84;;;24.41;70.85
46768;BME280;69007;48.978;18.066;2023-07-31T06:58:25;97456.81;;;24.53;72.78
46768;BME280;69007;48.978;18.066;2023-07-31T07:00:51;97451.09;;;24.29;72.18
46768;BME280;69007;48.978;18.066;2023-07-31T07:03:18;97449.59;;;24.00;71.44
46768;BME280;69007;48.978;18.066;2023-07-31T07:05:43;97442.75;;;24.14;73.76
46768;BME280;69007;48.978;18.066;2023-07-31T07:08:09;97456.03;;;24.36;71.41
46768;BME280;69007;48.978;18.066;2023-07-31T07:10:34;97447.28;;;24.70;71.89
46768;BME280;69007;48.978;18.066;2023-07-31T07:13:00;97461.19;;;25.05;70.36
46768;BME280;69007;48.978;18.066;2023-07-31T07:15:25;97453.97;;;24.84;68.44
46768;BME280;69007;48.978;18.066;2023-07-31T07:17:50;97464.06;;;24.73;69.71
46768;BME280;69007;48.978;18.066;2023-07-31T07:20:16;97457.75;;;24.76;70.12
46768;BME280;69007;48.978;18.066;2023-07-31T07:22:41;97454.06;;;24.88;70.14
46768;BME280;69007;48.978;18.066;2023-07-31T07:25:09;97447.59;;;24.84;69.21
46768;BME280;69007;48.978;18.066;2023-07-31T07:27:35;97464.22;;;24.80;70.25
46768;BME280;69007;48.978;18.066;2023-07-31T07:30:00;97469.44;;;24.82;68.92
46768;BME280;69007;48.978;18.066;2023-07-31T07:32:26;97447.25;;;24.34;70.36
46768;BME280;69007;48.978;18.066;2023-07-31T07:34:51;97457.38;;;24.42;72.38
46768;BME280;69007;48.978;18.066;2023-07-31T07:37:16;97459.72;;;24.08;72.42
46768;BME280;69007;48.978;18.066;2023-07-31T07:39:42;97444.13;;;24.04;72.10
46768;BME280;69007;48.978;18.066;2023-07-31T07:42:08;97456.03;;;24.36;72.05
46768;BME280;69007;48.978;18.066;2023-07-31T07:44:33;97429.56;;;24.58;71.25
46768;BME280;69007;48.978;18.066;2023-07-31T07:46:58;97463.47;;;24.64;71.88
46768;BME280;69007;48.978;18.066;2023-07-31T07:49:24;97460.09;;;24.74;71.07
46768;BME280;69007;48.978;18.066;2023-07-31T07:51:49;97461.44;;;24.80;72.42
46768;BME280;69007;48.978;18.066;2023-07-31T07:54:15;97452.78;;;24.66;71.96
46768;BME280;69007;48.978;18.066;2023-07-31T07:56:42;97458.41;;;24.70;71.92
46768;BME280;69007;48.978;18.066;2023-07-31T07:59:08;97453.03;;;24.77;72.08
46768;BME280;69007;48.978;18.066;2023-07-31T08:01:33;97454.19;;;24.76;73.25
46768;BME280;69007;48.978;18.066;2023-07-31T08:03:59;97468.13;;;24.95;72.58
46768;BME280;69007;48.978;18.066;2023-07-31T08:06:25;97449.69;;;25.07;72.59
46768;BME280;69007;48.978;18.066;2023-07-31T08:08:50;97448.06;;;25.06;73.39
46768;BME280;69007;48.978;18.066;2023-07-31T08:11:15;97463.66;;;24.91;71.83
46768;BME280;69007;48.978;18.066;2023-07-31T08:13:41;97461.88;;;24.82;72.43
46768;BME280;69007;48.978;18.066;2023-07-31T08:16:06;97448.41;;;24.84;72.58
46768;BME280;69007;48.978;18.066;2023-07-31T08:18:32;97455.22;;;24.87;72.88
46768;BME280;69007;48.978;18.066;2023-07-31T08:20:58;97450.59;;;24.75;71.88
46768;BME280;69007;48.978;18.066;2023-07-31T08:23:23;97465.88;;;24.65;73.21
46768;BME280;69007;48.978;18.066;2023-07-31T08:25:48;97468.09;;;24.76;72.56
46768;BME280;69007;48.978;18.066;2023-07-31T08:28:16;97454.63;;;24.78;71.56
46768;BME280;69007;48.978;18.066;2023-07-31T08:30:41;97442.03;;;24.49;68.63
46768;BME280;69007;48.978;18.066;2023-07-31T08:33:07;97458.72;;;24.49;70.61
46768;BME280;69007;48.978;18.066;2023-07-31T08:35:33;97447.13;;;24.46;70.67
46768;BME280;69007;48.978;18.066;2023-07-31T08:37:58;97456.00;;;24.52;70.96
46768;BME280;69007;48.978;18.066;2023-07-31T08:40:23;97448.66;;;24.44;71.29
46768;BME280;69007;48.978;18.066;2023-07-31T08:42:53;97469.22;;;24.39;70.22
46768;BME280;69007;48.978;18.066;2023-07-31T08:45:19;97471.72;;;24.28;73.39
46768;BME280;69007;48.978;18.066;2023-07-31T08:47:47;97447.69;;;24.20;68.63
46768;BME280;69007;48.978;18.066;2023-07-31T08:50:13;97445.81;;;24.08;67.91
46768;BME280;69007;48.978;18.066;2023-07-31T08:52:39;97458.00;;;24.04;74.29
46768;BME280;69007;48.978;18.066;2023-07-31T08:55:06;97446.91;;;24.20;73.16
46768;BME280;69007;48.978;18.066;2023-07-31T08:57:34;97454.41;;;24.35;71.85
46768;BME280;69007;48.978;18.066;2023-07-31T09:00:01;97448.66;;;24.44;69.62
46768;BME280;69007;48.978;18.066;2023-07-31T09:02:33;97461.69;;;24.56;69.56
46768;BME280;69007;48.978;18.066;2023-07-31T09:05:01;97454.22;;;24.60;68.43
46768;BME280;69007;48.978;18.066;2023-07-31T09:07:27;97452.78;;;24.66;68.04
46768;BME280;69007;48.978;18.066;2023-07-31T09:09:52;97450.56;;;24.56;68.89
46768;BME280;69007;48.978;18.066;2023-07-31T09:12:18;97437.81;;;24.39;67.38
46768;BME280;69007;48.978;18.066;2023-07-31T09:14:45;97452.81;;;24.34;67.16
46768;BME280;69007;48.978;18.066;2023-07-31T09:17:10;97442.78;;;23.98;69.18
46768;BME280;69007;48.978;18.066;2023-07-31T09:19:36;97435.16;;;23.95;67.79
46768;BME280;69007;48.978;18.066;2023-07-31T09:22:06;97437.66;;;23.84;67.60
46768;BME280;69007;48.978;18.066;2023-07-31T09:24:33;97421.63;;;23.93;64.75
46768;BME280;69007;48.978;18.066;2023-07-31T09:27:00;97436.94;;;23.87;67.43
46768;BME280;69007;48.978;18.066;2023-07-31T09:29:26;97430.00;;;23.81;66.04
46768;BME280;69007;48.978;18.066;2023-07-31T09:31:53;97417.28;;;23.80;66.78
46768;BME280;69007;48.978;18.066;2023-07-31T09:34:20;97426.75;;;23.91;64.28
46768;BME280;69007;48.978;18.066;2023-07-31T09:36:47;97418.56;;;23.98;65.89
46768;BME280;69007;48.978;18.066;2023-07-31T09:39:15;97431.13;;;24.24;65.16
46768;BME280;69007;48.978;18.066;2023-07-31T09:41:46;97421.88;;;24.20;64.62
46768;BME280;69007;48.978;18.066;2023-07-31T09:44:12;97421.28;;;24.46;64.68
46768;BME280;69007;48.978;18.066;2023-07-31T09:46:38;97419.16;;;24.55;63.78
46768;BME280;69007;48.978;18.066;2023-07-31T09:49:11;97421.44;;;24.53;58.18
46768;BME280;69007;48.978;18.066;2023-07-31T09:51:41;97421.50;;;24.37;61.86
46768;BME280;69007;48.978;18.066;2023-07-31T09:54:14;97438.19;;;24.37;58.61
46768;BME280;69007;48.978;18.066;2023-07-31T09:56:48;97428.22;;;24.36;58.17
46768;BME280;69007;48.978;18.066;2023-07-31T09:59:22;97414.59;;;24.31;56.70
46768;BME280;69007;48.978;18.066;2023-07-31T10:01:49;97420.31;;;24.38;63.23
46768;BME280;69007;48.978;18.066;2023-07-31T10:04:15;97419.81;;;24.33;61.15
46768;BME280;69007;48.978;18.066;2023-07-31T10:06:45;97408.25;;;24.15;62.64
46768;BME280;69007;48.978;18.066;2023-07-31T10:09:15;97395.44;;;24.10;61.50
46768;BME280;69007;48.978;18.066;2023-07-31T10:11:46;97409.81;;;23.96;61.03
46768;BME280;69007;48.978;18.066;2023-07-31T10:14:19;97398.13;;;23.74;60.80
46768;BME280;69007;48.978;18.066;2023-07-31T10:16:45;97415.31;;;23.80;61.84
46768;BME280;69007;48.978;18.066;2023-07-31T10:19:10;97393.88;;;23.81;62.56
46768;BME280;69007;48.978;18.066;2023-07-31T10:21:37;97402.53;;;23.91;61.05
46768;BME280;69007;48.978;18.066;2023-07-31T10:24:04;97396.97;;;24.07;61.96
46768;BME280;69007;48.978;18.066;2023-07-31T10:26:31;97391.47;;;24.27;60.36
46768;BME280;69007;48.978;18.066;2023-07-31T10:28:58;97401.53;;;24.51;60.13
46768;BME280;69007;48.978;18.066;2023-07-31T10:31:23;97412.22;;;24.65;59.65
46768;BME280;69007;48.978;18.066;2023-07-31T10:33:50;97395.53;;;24.49;57.88
46768;BME280;69007;48.978;18.066;2023-07-31T10:36:20;97401.75;;;24.42;58.10
46768;BME280;69007;48.978;18.066;2023-07-31T10:38:48;97403.03;;;24.29;58.11
46768;BME280;69007;48.978;18.066;2023-07-31T10:41:14;97374.94;;;24.34;61.19
46768;BME280;69007;48.978;18.066;2023-07-31T10:43:39;97395.66;;;24.37;58.79
46768;BME280;69007;48.978;18.066;2023-07-31T10:46:12;97390.44;;;24.35;58.96
46768;BME280;69007;48.978;18.066;2023-07-31T10:48:39;97391.78;;;24.41;60.08
46768;BME280;69007;48.978;18.066;2023-07-31T10:51:12;97360.44;;;24.25;57.62
46768;BME280;69007;48.978;18.066;2023-07-31T10:53:39;97386.13;;;24.54;62.03
46768;BME280;69007;48.978;18.066;2023-07-31T10:56:07;97377.28;;;24.68;58.08
46768;BME280;69007;48.978;18.066;2023-07-31T10:58:33;97377.16;;;24.44;58.37
46768;BME280;69007;48.978;18.066;2023-07-31T11:01:01;97372.56;;;24.17;57.21
46768;BME280;69007;48.978;18.066;2023-07-31T11:06:07;97372.13;;;24.15;57.51
46768;BME280;69007;48.978;18.066;2023-07-31T11:08:34;97376.25;;;24.21;56.93
46768;BME280;69007;48.978;18.066;2023-07-31T11:13:32;97365.28;;;24.28;53.95
46768;BME280;69007;48.978;18.066;2023-07-31T11:15:59;97353.22;;;24.40;54.50
46768;BME280;69007;48.978;18.066;2023-07-31T11:18:26;97379.28;;;24.51;55.94
46768;BME280;69007;48.978;18.066;2023-07-31T11:20:52;97367.72;;;24.65;54.79
46768;BME280;69007;48.978;18.066;2023-07-31T11:23:18;97343.69;;;24.76;55.71
46768;BME280;69007;48.978;18.066;2023-07-31T11:25:44;97363.16;;;24.76;53.70
46768;BME280;69007;48.978;18.066;2023-07-31T11:28:12;97363.63;;;24.78;53.70
46768;BME280;69007;48.978;18.066;2023-07-31T11:30:39;97368.88;;;24.83;52.57
46768;BME280;69007;48.978;18.066;2023-07-31T11:33:07;97368.50;;;24.65;53.12
46768;BME280;69007;48.978;18.066;2023-07-31T11:35:34;97368.25;;;24.55;54.80
46768;BME280;69007;48.978;18.066;2023-07-31T11:38:01;97344.88;;;24.40;54.56
46768;BME280;69007;48.978;18.066;2023-07-31T11:40:27;97354.22;;;24.32;53.55
46768;BME280;69007;48.978;18.066;2023-07-31T11:42:58;97360.69;;;24.36;51.66
46768;BME280;69007;48.978;18.066;2023-07-31T11:45:27;97335.78;;;24.23;51.26
46768;BME280;69007;48.978;18.066;2023-07-31T11:47:54;97354.16;;;24.28;52.08
46768;BME280;69007;48.978;18.066;2023-07-31T11:50:20;97341.69;;;24.22;53.79
46768;BME280;69007;48.978;18.066;2023-07-31T11:52:46;97338.25;;;24.28;54.66
46768;BME280;69007;48.978;18.066;2023-07-31T11:55:13;97337.19;;;24.33;53.07
46768;BME280;69007;48.978;18.066;2023-07-31T11:57:41;97337.09;;;24.29;53.22
46768;BME280;69007;48.978;18.066;2023-07-31T12:00:09;97351.41;;;24.47;54.24
46768;BME280;69007;48.978;18.066;2023-07-31T12:02:39;97336.25;;;24.45;54.19
46768;BME280;69007;48.978;18.066;2023-07-31T12:05:06;97344.94;;;24.43;53.79
46768;BME280;69007;48.978;18.066;2023-07-31T12:07:54;97334.41;;;24.33;51.59
46768;BME280;69007;48.978;18.066;2023-07-31T12:10:32;97329.50;;;24.26;53.32
46768;BME280;69007;48.978;18.066;2023-07-31T12:18:12;97313.47;;;24.55;52.26
46768;BME280;69007;48.978;18.066;2023-07-31T12:20:46;97312.06;;;24.65;53.49
46768;BME280;69007;48.978;18.066;2023-07-31T12:23:15;97322.84;;;24.67;52.64
46768;BME280;69007;48.978;18.066;2023-07-31T12:25:41;97310.03;;;24.62;54.42
46768;BME280;69007;48.978;18.066;2023-07-31T12:28:07;97298.38;;;24.56;53.37
46768;BME280;69007;48.978;18.066;2023-07-31T12:30:37;97306.16;;;24.67;54.00
46768;BME280;69007;48.978;18.066;2023-07-31T12:33:04;97298.53;;;24.63;53.27
46768;BME280;69007;48.978;18.066;2023-07-31T12:35:38;97300.50;;;24.63;54.85
46768;BME280;69007;48.978;18.066;2023-07-31T12:38:05;97304.66;;;24.73;55.61
46768;BME280;69007;48.978;18.066;2023-07-31T12:40:31;97296.97;;;24.86;56.57
46768;BME280;69007;48.978;18.066;2023-07-31T12:42:56;97306.28;;;24.93;54.84
46768;BME280;69007;48.978;18.066;2023-07-31T12:45:22;97293.50;;;24.92;54.32
46768;BME280;69007;48.978;18.066;2023-07-31T12:47:48;97271.94;;;24.86;53.71
46768;BME280;69007;48.978;18.066;2023-07-31T12:50:14;97287.47;;;24.87;54.65
46768;BME280;69007;48.978;18.066;2023-07-31T12:52:39;97276.81;;;24.92;54.01
46768;BME280;69007;48.978;18.066;2023-07-31T12:55:05;97259.06;;;24.77;51.90
46768;BME280;69007;48.978;18.066;2023-07-31T12:57:30;97275.31;;;24.75;53.65
46768;BME280;69007;48.978;18.066;2023-07-31T12:59:56;97264.78;;;24.65;53.05